createdAt,value
2018-11-04T00:00:24.170Z,17.30
2018-11-04T00:02:52.230Z,17.30
2018-11-04T00:05:20.299Z,17.30
2018-11-04T00:07:49.472Z,17.50
2018-11-04T00:10:17.516Z,17.50
2018-11-04T00:12:45.590Z,17.40
2018-11-04T00:15:13.666Z,17.40
2018-11-04T00:17:41.757Z,17.40
2018-11-04T00:20:11.789Z,17.70
2018-11-04T00:22:39.863Z,17.80
2018-11-04T00:25:09.562Z,17.80
2018-11-04T00:27:37.978Z,17.80
2018-11-04T00:30:07.592Z,17.70
2018-11-04T00:32:35.654Z,17.70
2018-11-04T00:35:03.734Z,17.70
2018-11-04T00:37:31.795Z,17.60
2018-11-04T00:39:59.858Z,17.50
2018-11-04T00:42:28.231Z,17.40
2018-11-04T00:44:56.333Z,17.30
2018-11-04T00:47:24.400Z,17.30
2018-11-04T00:49:52.462Z,17.20
2018-11-04T00:52:20.536Z,17.20
2018-11-04T00:54:48.611Z,17.10
2018-11-04T00:57:16.694Z,17.10
2018-11-04T00:59:44.773Z,17.10
2018-11-04T01:02:12.860Z,15.70
2018-11-04T01:04:41.165Z,17.10
2018-11-04T01:07:09.246Z,17.00
2018-11-04T01:09:37.306Z,17.00
2018-11-04T01:12:05.482Z,17.00
2018-11-04T01:14:33.639Z,16.90
2018-11-04T01:17:01.710Z,16.80
2018-11-04T01:19:29.786Z,16.70
2018-11-04T01:21:57.865Z,16.60
2018-11-04T01:24:25.966Z,16.50
2018-11-04T01:26:54.321Z,16.60
2018-11-04T01:29:22.390Z,16.70
2018-11-04T01:31:50.454Z,16.70
2018-11-04T01:34:18.542Z,16.70
2018-11-04T01:36:46.663Z,16.70
2018-11-04T01:39:14.723Z,16.70
2018-11-04T01:41:43.057Z,16.70
2018-11-04T01:44:11.757Z,16.70
2018-11-04T01:46:41.012Z,16.70
2018-11-04T01:49:09.211Z,16.60
2018-11-04T01:51:37.314Z,16.60
2018-11-04T01:54:05.478Z,16.60
2018-11-04T01:56:33.872Z,16.60
2018-11-04T01:59:02.011Z,16.50
2018-11-04T02:01:30.150Z,16.50
2018-11-04T02:03:58.758Z,16.50
2018-11-04T02:06:26.907Z,16.50
2018-11-04T02:08:55.021Z,16.50
2018-11-04T02:11:23.680Z,16.40
2018-11-04T02:13:51.745Z,16.40
2018-11-04T02:16:19.803Z,16.40
2018-11-04T02:18:47.874Z,16.40
2018-11-04T02:21:15.952Z,16.40
2018-11-04T02:23:44.018Z,16.40
2018-11-04T02:26:12.490Z,16.30
2018-11-04T02:28:40.557Z,16.30
2018-11-04T02:31:08.613Z,16.30
2018-11-04T02:33:36.712Z,16.30
2018-11-04T02:36:05.162Z,16.30
2018-11-04T02:38:33.210Z,16.20
2018-11-04T02:41:01.772Z,16.20
2018-11-04T02:43:29.837Z,16.20
2018-11-04T02:45:57.947Z,16.20
2018-11-04T02:48:26.018Z,16.20
2018-11-04T02:50:54.094Z,16.20
2018-11-04T02:53:22.158Z,16.20
2018-11-04T02:55:50.511Z,16.20
2018-11-04T02:58:18.620Z,16.20
2018-11-04T03:00:46.682Z,16.10
2018-11-04T03:03:14.774Z,16.10
2018-11-04T03:05:42.891Z,16.10
2018-11-04T03:08:10.943Z,16.10
2018-11-04T03:10:39.418Z,16.10
2018-11-04T03:13:07.486Z,16.10
2018-11-04T03:15:35.578Z,16.00
2018-11-04T03:18:03.669Z,16.00
2018-11-04T03:20:31.747Z,16.00
2018-11-04T03:22:59.826Z,16.00
2018-11-04T03:25:28.245Z,16.00
2018-11-04T03:27:56.346Z,15.90
2018-11-04T03:30:24.399Z,15.90
2018-11-04T03:32:52.470Z,15.90
2018-11-04T03:35:20.858Z,15.90
2018-11-04T03:37:48.889Z,15.90
2018-11-04T03:40:16.957Z,15.90
2018-11-04T03:42:44.994Z,15.90
2018-11-04T03:45:13.048Z,15.90
2018-11-04T03:47:41.423Z,15.90
2018-11-04T03:50:10.894Z,15.80
2018-11-04T03:52:38.958Z,15.80
2018-11-04T03:55:07.767Z,15.80
2018-11-04T03:57:35.871Z,15.80
2018-11-04T04:00:04.114Z,15.80
2018-11-04T04:02:32.180Z,15.80
2018-11-04T04:05:00.279Z,15.70
2018-11-04T04:07:28.326Z,15.70
2018-11-04T04:09:56.401Z,15.70
2018-11-04T04:12:24.462Z,15.70
2018-11-04T04:14:52.517Z,15.70
2018-11-04T04:17:20.986Z,15.70
2018-11-04T04:19:49.097Z,15.70
2018-11-04T04:22:17.162Z,15.70
2018-11-04T04:24:45.231Z,15.70
2018-11-04T04:27:13.292Z,15.70
2018-11-04T04:29:41.351Z,15.60
2018-11-04T04:32:09.945Z,15.60
2018-11-04T04:34:38.090Z,15.60
2018-11-04T04:37:06.360Z,15.60
2018-11-04T04:39:34.443Z,15.60
2018-11-04T04:42:02.481Z,15.60
2018-11-04T04:44:30.754Z,15.60
2018-11-04T04:46:58.806Z,15.50
2018-11-04T04:49:27.018Z,15.50
2018-11-04T04:51:55.102Z,15.50
2018-11-04T04:54:23.158Z,15.50
2018-11-04T04:56:51.231Z,15.50
2018-11-04T04:59:19.290Z,15.50
2018-11-04T05:01:47.614Z,15.50
2018-11-04T05:04:15.678Z,15.40
2018-11-04T05:06:43.895Z,15.40
2018-11-04T05:09:12.030Z,15.40
2018-11-04T05:11:40.310Z,15.40
2018-11-04T05:14:08.433Z,15.40
2018-11-04T05:16:36.486Z,15.40
2018-11-04T05:19:04.946Z,15.40
2018-11-04T05:21:33.058Z,15.40
2018-11-04T05:24:01.570Z,15.30
2018-11-04T05:26:29.659Z,15.40
2018-11-04T05:28:57.740Z,15.40
2018-11-04T05:31:25.878Z,15.30
2018-11-04T05:33:53.933Z,15.30
2018-11-04T05:36:22.120Z,15.30
2018-11-04T05:38:50.246Z,15.30
2018-11-04T05:41:18.367Z,15.30
2018-11-04T05:43:46.430Z,15.30
2018-11-04T05:46:14.530Z,15.30
2018-11-04T05:48:42.702Z,15.20
2018-11-04T05:51:10.774Z,15.20
2018-11-04T05:53:40.080Z,15.20
2018-11-04T05:56:08.738Z,15.20
2018-11-04T05:58:36.918Z,15.20
2018-11-04T06:01:05.534Z,15.20
2018-11-04T06:03:33.625Z,15.20
2018-11-04T06:06:01.751Z,15.20
2018-11-04T06:08:29.841Z,15.10
2018-11-04T06:10:57.949Z,15.20
2018-11-04T06:13:26.177Z,15.20
2018-11-04T06:15:54.238Z,15.10
2018-11-04T06:18:22.293Z,15.10
2018-11-04T06:20:50.383Z,15.10
2018-11-04T06:23:18.730Z,15.10
2018-11-04T06:25:46.799Z,15.10
2018-11-04T06:28:14.843Z,15.10
2018-11-04T06:30:42.922Z,15.10
2018-11-04T06:33:11.116Z,15.00
2018-11-04T06:35:39.158Z,15.00
2018-11-04T06:38:07.429Z,15.00
2018-11-04T06:40:35.510Z,15.00
2018-11-04T06:43:03.656Z,15.00
2018-11-04T06:45:32.258Z,15.00
2018-11-04T06:48:00.391Z,15.00
2018-11-04T06:50:28.506Z,15.00
2018-11-04T06:52:56.566Z,15.00
2018-11-04T06:55:24.627Z,15.00
2018-11-04T06:57:52.718Z,14.90
2018-11-04T07:00:21.022Z,14.90
2018-11-04T07:02:49.153Z,14.90
2018-11-04T07:05:17.278Z,14.90
2018-11-04T07:07:45.408Z,14.90
2018-11-04T07:10:13.486Z,14.90
2018-11-04T07:12:41.570Z,14.90
2018-11-04T07:15:09.646Z,14.90
2018-11-04T07:17:37.777Z,15.00
2018-11-04T07:20:06.984Z,14.90
2018-11-04T07:22:34.971Z,14.90
2018-11-04T07:25:03.063Z,14.90
2018-11-04T07:27:31.163Z,14.90
2018-11-04T07:29:59.294Z,14.90
2018-11-04T07:32:27.368Z,14.90
2018-11-04T07:34:55.438Z,15.00
2018-11-04T07:37:23.499Z,15.00
2018-11-04T07:39:51.625Z,15.00
2018-11-04T07:42:19.730Z,15.00
2018-11-04T07:44:48.030Z,15.00
2018-11-04T07:47:16.112Z,15.00
2018-11-04T07:49:44.170Z,15.10
2018-11-04T07:52:12.343Z,15.10
2018-11-04T07:54:40.435Z,15.10
2018-11-04T07:57:08.542Z,15.10
2018-11-04T07:59:36.870Z,15.10
2018-11-04T08:02:04.954Z,15.10
2018-11-04T08:04:33.078Z,15.20
2018-11-04T08:07:01.201Z,15.20
2018-11-04T08:09:29.366Z,15.20
2018-11-04T08:11:57.418Z,15.20
2018-11-04T08:14:25.519Z,15.20
2018-11-04T08:16:53.626Z,15.20
2018-11-04T08:19:21.722Z,15.30
2018-11-04T08:21:50.129Z,15.30
2018-11-04T08:24:18.226Z,15.30
2018-11-04T08:26:46.331Z,15.30
2018-11-04T08:29:14.518Z,15.30
2018-11-04T08:31:42.586Z,15.40
2018-11-04T08:34:10.678Z,15.40
2018-11-04T08:36:38.994Z,15.40
2018-11-04T08:39:07.814Z,15.40
2018-11-04T08:41:36.111Z,15.50
2018-11-04T08:44:04.302Z,15.50
2018-11-04T08:46:32.444Z,15.50
2018-11-04T08:49:00.519Z,15.50
2018-11-04T08:51:28.659Z,15.50
2018-11-04T08:53:56.758Z,15.50
2018-11-04T08:56:24.802Z,15.50
2018-11-04T08:58:53.103Z,15.50
2018-11-04T09:01:21.467Z,15.50
2018-11-04T09:03:49.522Z,15.60
2018-11-04T09:06:17.853Z,15.60
2018-11-04T09:08:45.883Z,15.60
2018-11-04T09:11:13.938Z,15.60
2018-11-04T09:13:42.206Z,15.60
2018-11-04T09:16:10.238Z,15.60
2018-11-04T09:18:38.314Z,15.60
2018-11-04T09:21:06.410Z,15.60
2018-11-04T09:23:34.527Z,15.60
2018-11-04T09:26:02.543Z,15.60
2018-11-04T09:28:30.838Z,15.70
2018-11-04T09:30:58.887Z,15.70
2018-11-04T09:33:26.942Z,15.70
2018-11-04T09:35:55.551Z,15.70
2018-11-04T09:38:23.366Z,15.70
2018-11-04T09:40:51.428Z,15.70
2018-11-04T09:43:19.584Z,15.70
2018-11-04T09:45:47.635Z,15.80
2018-11-04T09:48:15.719Z,15.70
2018-11-04T09:50:43.842Z,15.70
2018-11-04T09:53:11.932Z,15.80
2018-11-04T09:55:40.847Z,15.80
2018-11-04T09:58:09.132Z,15.80
2018-11-04T10:00:37.231Z,15.80
2018-11-04T10:03:05.328Z,15.90
2018-11-04T10:05:33.645Z,15.90
2018-11-04T10:08:01.804Z,15.90
2018-11-04T10:10:29.880Z,15.90
2018-11-04T10:12:57.978Z,15.90
2018-11-04T10:15:26.063Z,15.90
2018-11-04T10:17:54.134Z,15.90
2018-11-04T10:20:22.575Z,15.90
2018-11-04T10:22:50.322Z,16.00
2018-11-04T10:25:18.546Z,16.00
2018-11-04T10:27:46.682Z,16.00
2018-11-04T10:30:16.212Z,16.10
2018-11-04T10:32:44.344Z,16.20
2018-11-04T10:35:12.410Z,16.30
2018-11-04T10:37:41.162Z,16.30
2018-11-04T10:40:10.330Z,16.40
2018-11-04T10:42:38.419Z,16.40
2018-11-04T10:45:07.575Z,16.40
2018-11-04T10:47:35.730Z,16.40
2018-11-04T10:50:04.225Z,16.50
2018-11-04T10:52:32.242Z,16.50
2018-11-04T10:55:00.466Z,16.60
2018-11-04T10:57:29.960Z,16.70
2018-11-04T10:59:58.142Z,16.80
2018-11-04T11:02:27.230Z,16.90
2018-11-04T11:04:55.433Z,16.80
2018-11-04T11:07:23.559Z,16.90
2018-11-04T11:09:51.710Z,17.00
2018-11-04T11:12:20.045Z,17.20
2018-11-04T11:14:48.282Z,17.40
2018-11-04T11:17:16.418Z,17.60
2018-11-04T11:19:44.535Z,17.70
2018-11-04T11:22:12.724Z,18.00
2018-11-04T11:24:40.779Z,18.10
2018-11-04T11:27:08.911Z,18.30
2018-11-04T11:29:37.038Z,18.40
2018-11-04T11:32:05.222Z,18.50
2018-11-04T11:34:33.398Z,18.70
2018-11-04T11:37:01.785Z,18.80
2018-11-04T11:39:29.931Z,18.80
2018-11-04T11:41:58.200Z,18.90
2018-11-04T11:44:26.380Z,18.90
2018-11-04T11:46:54.479Z,19.00
2018-11-04T11:49:22.647Z,19.10
2018-11-04T11:51:50.759Z,19.20
2018-11-04T11:54:19.715Z,19.30
2018-11-04T11:56:47.791Z,19.30
2018-11-04T11:59:15.915Z,19.30
2018-11-04T12:01:43.962Z,19.40
2018-11-04T12:04:12.713Z,19.40
2018-11-04T12:06:40.786Z,19.50
2018-11-04T12:09:09.239Z,19.50
2018-11-04T12:11:37.629Z,19.40
2018-11-04T12:14:06.055Z,19.40
2018-11-04T12:16:34.103Z,19.50
2018-11-04T12:19:02.150Z,19.50
2018-11-04T12:21:31.846Z,19.50
2018-11-04T12:24:03.122Z,19.50
2018-11-04T12:26:32.244Z,19.50
2018-11-04T12:29:00.449Z,19.40
2018-11-04T12:31:28.635Z,19.40
2018-11-04T12:33:56.739Z,19.40
2018-11-04T12:36:24.811Z,19.50
2018-11-04T12:38:54.384Z,19.40
2018-11-04T12:41:22.505Z,19.40
2018-11-04T12:43:52.166Z,19.40
2018-11-04T12:46:20.340Z,19.40
2018-11-04T12:48:48.763Z,19.40
2018-11-04T12:51:16.894Z,19.40
2018-11-04T12:53:46.959Z,19.40
2018-11-04T12:56:15.263Z,19.50
2018-11-04T12:58:44.342Z,19.50
2018-11-04T13:01:12.522Z,19.60
2018-11-04T13:03:40.959Z,19.70
2018-11-04T13:06:10.679Z,19.90
2018-11-04T13:08:39.635Z,20.00
2018-11-04T13:11:07.782Z,20.10
2018-11-04T13:13:35.870Z,20.10
2018-11-04T13:16:03.991Z,20.20
2018-11-04T13:18:32.230Z,20.40
2018-11-04T13:21:00.594Z,20.40
2018-11-04T13:23:28.665Z,20.50
2018-11-04T13:25:56.757Z,20.50
2018-11-04T13:28:24.886Z,20.50
2018-11-04T13:30:52.987Z,20.60
2018-11-04T13:33:21.064Z,20.60
2018-11-04T13:35:49.198Z,20.70
2018-11-04T13:38:17.630Z,20.70
2018-11-04T13:40:45.797Z,20.70
2018-11-04T13:43:13.932Z,20.70
2018-11-04T13:45:41.971Z,20.80
2018-11-04T13:48:10.078Z,20.80
2018-11-04T13:50:38.180Z,20.80
2018-11-04T13:53:06.282Z,20.80
2018-11-04T13:55:34.539Z,20.80
2018-11-04T13:58:02.646Z,20.80
2018-11-04T14:00:30.698Z,20.80
2018-11-04T14:02:58.891Z,20.80
2018-11-04T14:05:27.162Z,20.80
2018-11-04T14:07:55.467Z,20.80
2018-11-04T14:10:23.579Z,20.70
2018-11-04T14:12:53.299Z,20.80
2018-11-04T14:15:21.506Z,20.80
2018-11-04T14:17:49.884Z,20.80
2018-11-04T14:20:20.355Z,20.80
2018-11-04T14:22:48.581Z,20.80
2018-11-04T14:25:16.695Z,20.80
2018-11-04T14:27:44.810Z,20.80
2018-11-04T14:30:14.622Z,20.80
2018-11-04T14:32:42.923Z,20.80
2018-11-04T14:35:11.653Z,20.80
2018-11-04T14:37:40.907Z,20.70
2018-11-04T14:40:10.946Z,20.80
2018-11-04T14:42:39.606Z,20.80
2018-11-04T14:45:07.755Z,20.90
2018-11-04T14:47:35.996Z,20.90
2018-11-04T14:50:04.574Z,20.90
2018-11-04T14:52:32.622Z,20.90
2018-11-04T14:55:00.898Z,21.00
2018-11-04T14:57:28.953Z,21.10
2018-11-04T14:59:56.997Z,21.20
2018-11-04T15:02:25.055Z,21.20
2018-11-04T15:04:53.102Z,21.20
2018-11-04T15:07:21.187Z,21.20
2018-11-04T15:09:49.243Z,21.20
2018-11-04T15:12:17.314Z,21.20
2018-11-04T15:14:45.374Z,21.10
2018-11-04T15:17:13.475Z,21.10
2018-11-04T15:19:41.650Z,21.00
2018-11-04T15:22:09.725Z,20.90
2018-11-04T15:24:37.764Z,20.90
2018-11-04T15:27:05.963Z,21.00
2018-11-04T15:29:34.492Z,21.10
2018-11-04T15:32:02.639Z,21.10
2018-11-04T15:34:30.857Z,21.00
2018-11-04T15:36:58.770Z,21.10
2018-11-04T15:39:26.859Z,21.20
2018-11-04T15:41:55.070Z,21.20
2018-11-04T15:44:23.446Z,21.20
2018-11-04T15:46:51.539Z,21.10
2018-11-04T15:49:19.707Z,21.00
2018-11-04T15:51:47.790Z,21.10
2018-11-04T15:54:15.984Z,21.20
2018-11-04T15:56:44.323Z,21.30
2018-11-04T15:59:12.542Z,21.30
2018-11-04T16:01:56.175Z,21.40
2018-11-04T16:04:29.290Z,21.70
2018-11-04T16:06:57.902Z,21.60
2018-11-04T16:09:29.022Z,21.60
2018-11-04T16:11:57.355Z,21.50
2018-11-04T16:14:26.248Z,21.40
2018-11-04T16:16:54.455Z,21.40
2018-11-04T16:19:23.042Z,21.40
2018-11-04T16:21:51.115Z,21.20
2018-11-04T16:24:19.948Z,21.20
2018-11-04T16:26:48.022Z,21.10
2018-11-04T16:29:16.084Z,21.00
2018-11-04T16:31:44.496Z,21.10
2018-11-04T16:34:12.599Z,20.20
2018-11-04T16:36:41.261Z,20.50
2018-11-04T16:41:54.430Z,21.00
2018-11-04T16:44:28.151Z,21.00
2018-11-04T16:46:56.391Z,21.00
2018-11-04T16:49:24.784Z,21.00
2018-11-04T16:51:54.023Z,21.00
2018-11-04T16:54:22.856Z,21.10
2018-11-04T16:56:53.175Z,21.10
2018-11-04T16:59:21.599Z,21.10
2018-11-04T17:01:50.552Z,21.10
2018-11-04T17:04:20.066Z,21.00
2018-11-04T17:06:48.503Z,21.00
2018-11-04T17:09:17.191Z,21.00
2018-11-04T17:11:45.595Z,21.00
2018-11-04T17:14:13.792Z,21.00
2018-11-04T17:16:42.030Z,20.90
2018-11-04T17:19:10.315Z,20.80
2018-11-04T17:21:38.816Z,20.90
2018-11-04T17:24:07.146Z,20.90
2018-11-04T17:26:35.549Z,20.90
2018-11-04T17:29:03.855Z,20.80
2018-11-04T17:31:32.010Z,20.80
2018-11-04T17:34:00.179Z,20.70
2018-11-04T17:36:28.497Z,20.60
2018-11-04T17:38:56.936Z,20.50
2018-11-04T17:41:25.550Z,20.50
2018-11-04T17:43:53.943Z,20.50
2018-11-04T17:46:22.202Z,20.60
2018-11-04T17:48:50.442Z,20.50
2018-11-04T17:51:18.828Z,20.60
2018-11-04T17:53:47.330Z,20.60
2018-11-04T17:56:15.519Z,20.50
2018-11-04T17:58:43.795Z,20.40
2018-11-04T18:01:18.633Z,20.30
2018-11-04T18:03:46.956Z,20.30
2018-11-04T18:06:15.375Z,20.20
2018-11-04T18:08:43.927Z,20.20
2018-11-04T18:11:12.312Z,20.30
2018-11-04T18:13:40.958Z,19.40
2018-11-04T18:16:09.763Z,20.20
2018-11-04T18:18:37.901Z,20.10
2018-11-04T18:21:06.055Z,20.10
2018-11-04T18:23:34.150Z,20.00
2018-11-04T18:26:02.300Z,20.00
2018-11-04T18:28:30.785Z,20.00
2018-11-04T18:30:58.933Z,19.90
2018-11-04T18:33:27.106Z,19.80
2018-11-04T18:35:55.223Z,19.80
2018-11-04T18:38:23.326Z,19.70
2018-11-04T18:40:51.417Z,19.70
2018-11-04T18:43:19.691Z,19.60
2018-11-04T18:45:47.818Z,19.60
2018-11-04T18:48:15.994Z,19.50
2018-11-04T18:50:44.144Z,19.40
2018-11-04T18:53:12.323Z,19.40
2018-11-04T18:58:00.862Z,19.40
2018-11-04T19:00:28.963Z,19.30
2018-11-04T19:02:57.117Z,19.30
2018-11-04T19:05:25.296Z,19.30
2018-11-04T19:07:53.355Z,19.30
2018-11-04T19:10:21.437Z,19.30
2018-11-04T19:12:50.031Z,19.30
2018-11-04T19:15:18.107Z,19.30
2018-11-04T19:17:46.504Z,19.30
2018-11-04T19:20:15.314Z,19.30
2018-11-04T19:22:43.530Z,19.30
2018-11-04T19:25:12.717Z,19.20
2018-11-04T19:27:40.997Z,19.20
2018-11-04T19:30:11.326Z,19.20
2018-11-04T19:32:39.447Z,19.10
2018-11-04T19:35:08.793Z,19.10
2018-11-04T19:37:37.028Z,19.10
2018-11-04T19:40:06.914Z,19.20
2018-11-04T19:42:35.108Z,19.20
2018-11-04T19:45:03.204Z,19.20
2018-11-04T19:47:31.294Z,19.20
2018-11-04T19:49:59.415Z,19.20
2018-11-04T19:52:27.539Z,19.10
2018-11-04T19:54:56.046Z,19.10
2018-11-04T19:57:27.587Z,19.10
2018-11-04T19:59:56.023Z,19.10
2018-11-04T20:02:24.119Z,19.00
2018-11-04T20:04:52.266Z,19.00
2018-11-04T20:07:20.413Z,19.10
2018-11-04T20:09:48.551Z,19.10
2018-11-04T20:12:21.952Z,19.00
2018-11-04T20:14:50.103Z,19.10
2018-11-04T20:17:18.207Z,19.10
2018-11-04T20:19:51.823Z,19.10
2018-11-04T20:22:19.892Z,19.00
2018-11-04T20:24:53.491Z,19.00
2018-11-04T20:27:21.727Z,18.90
2018-11-04T20:29:49.806Z,18.90
2018-11-04T20:32:23.285Z,18.90
2018-11-04T20:34:51.374Z,19.00
2018-11-04T20:37:19.453Z,19.10
2018-11-04T20:39:52.874Z,19.20
2018-11-04T20:42:21.224Z,19.20
2018-11-04T20:44:49.700Z,19.20
2018-11-04T20:47:17.751Z,19.20
2018-11-04T20:49:51.347Z,19.10
2018-11-04T20:52:19.455Z,19.10
2018-11-04T20:54:47.554Z,19.10
2018-11-04T20:57:21.016Z,19.00
2018-11-04T20:59:49.126Z,19.00
2018-11-04T21:02:17.324Z,19.10
2018-11-04T21:04:45.311Z,19.20
2018-11-04T21:07:13.391Z,19.20
2018-11-04T21:09:41.454Z,19.20
2018-11-04T21:12:09.951Z,19.20
2018-11-04T21:14:38.057Z,19.20
2018-11-04T21:17:06.258Z,19.20
2018-11-04T21:19:34.339Z,19.20
2018-11-04T21:22:02.715Z,19.20
2018-11-04T21:24:30.807Z,19.20
2018-11-04T21:26:58.919Z,19.20
2018-11-04T21:29:27.425Z,19.20
2018-11-04T21:31:55.124Z,19.10
2018-11-04T21:34:23.207Z,19.20
2018-11-04T21:36:51.362Z,19.20
2018-11-04T21:39:19.467Z,19.30
2018-11-04T21:41:47.550Z,19.30
2018-11-04T21:44:16.439Z,19.30
2018-11-04T21:46:44.150Z,19.20
2018-11-04T21:49:12.248Z,19.30
2018-11-04T21:51:41.120Z,19.30
2018-11-04T21:54:09.578Z,19.20
2018-11-04T21:56:37.881Z,19.20
2018-11-04T21:59:05.910Z,19.20
2018-11-04T22:01:34.028Z,19.30
2018-11-04T22:04:02.297Z,19.30
2018-11-04T22:06:30.283Z,19.40
2018-11-04T22:08:58.676Z,19.40
2018-11-04T22:11:26.770Z,19.40
2018-11-04T22:13:55.290Z,19.30
2018-11-04T22:16:23.219Z,19.30
2018-11-04T22:18:51.322Z,19.40
2018-11-04T22:21:19.555Z,19.40
2018-11-04T22:23:47.675Z,19.50
2018-11-04T22:26:15.788Z,19.40
2018-11-04T22:28:43.870Z,19.40
2018-11-04T22:33:50.130Z,19.40
2018-11-04T22:36:18.307Z,19.50
2018-11-04T22:38:46.948Z,19.50
2018-11-04T22:41:15.179Z,19.60
2018-11-04T22:43:44.070Z,19.60
2018-11-04T22:46:12.223Z,19.50
2018-11-04T22:48:40.307Z,19.50
2018-11-04T22:53:46.225Z,19.40
2018-11-04T22:56:14.448Z,19.40
2018-11-04T22:58:42.426Z,19.50
2018-11-04T23:01:10.526Z,19.60
2018-11-04T23:03:38.666Z,19.50
2018-11-04T23:06:07.818Z,19.60
2018-11-04T23:08:35.995Z,19.50
2018-11-04T23:11:04.183Z,19.50
2018-11-04T23:13:32.448Z,19.50
2018-11-04T23:16:00.554Z,19.40
2018-11-04T23:18:28.779Z,19.50
2018-11-04T23:20:56.823Z,19.60
2018-11-04T23:23:25.023Z,19.60
2018-11-04T23:25:53.130Z,19.60
2018-11-04T23:28:21.211Z,19.60
2018-11-04T23:30:49.334Z,19.60
2018-11-04T23:33:17.767Z,19.60
2018-11-04T23:35:45.914Z,19.70
2018-11-04T23:38:14.022Z,19.70
2018-11-04T23:40:42.281Z,19.70
2018-11-04T23:43:10.387Z,19.70
2018-11-04T23:45:39.679Z,19.70
2018-11-04T23:48:07.843Z,19.80
2018-11-04T23:50:35.977Z,19.80
2018-11-04T23:53:04.179Z,19.80
2018-11-04T23:55:32.274Z,19.80
2018-11-04T23:58:00.655Z,19.80
